sensor_id;sensor_type;location;lat;lon;timestamp;P1;durP1;ratioP1;P2;durP2;ratioP2
48795;SDS011;34607;48.520;-1.330;2024-02-26T08:43:52;2.83;;;1.13;;
48795;SDS011;34607;48.520;-1.330;2024-02-26T08:46:23;2.08;;;1.10;;
48795;SDS011;34607;48.520;-1.330;2024-02-26T08:48:50;4.18;;;1.20;;
48795;SDS011;34607;48.520;-1.330;2024-02-26T08:51:17;4.93;;;1.20;;
48795;SDS011;34607;48.520;-1.330;2024-02-26T08:53:44;3.38;;;1.48;;
48795;SDS011;34607;48.520;-1.330;2024-02-26T08:56:11;2.58;;;1.20;;
48795;SDS011;34607;48.520;-1.330;2024-02-26T08:58:42;4.93;;;1.88;;
48795;SDS011;34607;48.520;-1.330;2024-02-26T09:01:11;4.22;;;1.50;;
48795;SDS011;34607;48.520;-1.330;2024-02-26T09:03:38;5.03;;;1.80;;
48795;SDS011;34607;48.520;-1.330;2024-02-26T09:06:05;4.72;;;1.42;;
48795;SDS011;34607;48.520;-1.330;2024-02-26T09:08:32;4.75;;;1.85;;
48795;SDS011;34607;48.520;-1.330;2024-02-26T09:11:01;4.40;;;1.63;;
48795;SDS011;34607;48.520;-1.330;2024-02-26T09:13:28;3.25;;;1.30;;
48795;SDS011;34607;48.520;-1.330;2024-02-26T09:15:56;3.08;;;1.52;;
48795;SDS011;34607;48.520;-1.330;2024-02-26T09:18:25;4.95;;;1.33;;
48795;SDS011;34607;48.520;-1.330;2024-02-26T09:20:54;4.35;;;1.77;;
48795;SDS011;34607;48.520;-1.330;2024-02-26T09:23:21;3.78;;;1.20;;
48795;SDS011;34607;48.520;-1.330;2024-02-26T09:25:48;4.90;;;1.25;;
48795;SDS011;34607;48.520;-1.330;2024-02-26T09:28:15;4.78;;;1.23;;
48795;SDS011;34607;48.520;-1.330;2024-02-26T09:30:43;2.75;;;0.80;;
48795;SDS011;34607;48.520;-1.330;2024-02-26T09:33:10;5.18;;;1.50;;
48795;SDS011;34607;48.520;-1.330;2024-02-26T09:35:38;9.93;;;1.45;;
48795;SDS011;34607;48.520;-1.330;2024-02-26T09:38:06;1.35;;;0.80;;
48795;SDS011;34607;48.520;-1.330;2024-02-26T09:40:33;2.60;;;0.88;;
48795;SDS011;34607;48.520;-1.330;2024-02-26T09:43:00;3.13;;;1.10;;
48795;SDS011;34607;48.520;-1.330;2024-02-26T09:45:31;3.75;;;1.27;;
48795;SDS011;34607;48.520;-1.330;2024-02-26T09:47:59;1.48;;;0.80;;
48795;SDS011;34607;48.520;-1.330;2024-02-26T09:50:29;6.35;;;1.10;;
48795;SDS011;34607;48.520;-1.330;2024-02-26T09:52:57;5.20;;;1.10;;
48795;SDS011;34607;48.520;-1.330;2024-02-26T09:55:27;9.20;;;3.92;;
48795;SDS011;34607;48.520;-1.330;2024-02-26T09:57:54;5.75;;;2.65;;
48795;SDS011;34607;48.520;-1.330;2024-02-26T10:00:24;5.03;;;2.00;;
48795;SDS011;34607;48.520;-1.330;2024-02-26T10:02:55;4.63;;;2.25;;
48795;SDS011;34607;48.520;-1.330;2024-02-26T10:05:24;5.28;;;2.22;;
48795;SDS011;34607;48.520;-1.330;2024-02-26T10:07:52;3.92;;;1.77;;
48795;SDS011;34607;48.520;-1.330;2024-02-26T10:10:22;10.20;;;4.55;;
48795;SDS011;34607;48.520;-1.330;2024-02-26T10:12:49;5.13;;;1.98;;
48795;SDS011;34607;48.520;-1.330;2024-02-26T10:15:16;3.75;;;1.40;;
48795;SDS011;34607;48.520;-1.330;2024-02-26T10:17:43;6.13;;;1.42;;
48795;SDS011;34607;48.520;-1.330;2024-02-26T10:20:14;3.78;;;1.35;;
48795;SDS011;34607;48.520;-1.330;2024-02-26T10:22:42;6.07;;;1.90;;
48795;SDS011;34607;48.520;-1.330;2024-02-26T10:25:09;2.80;;;1.13;;
48795;SDS011;34607;48.520;-1.330;2024-02-26T10:27:37;6.50;;;1.20;;
48795;SDS011;34607;48.520;-1.330;2024-02-26T10:30:15;3.95;;;1.05;;
48795;SDS011;34607;48.520;-1.330;2024-02-26T10:32:44;5.25;;;1.10;;
48795;SDS011;34607;48.520;-1.330;2024-02-26T10:35:12;4.38;;;1.25;;
48795;SDS011;34607;48.520;-1.330;2024-02-26T10:37:39;4.93;;;1.25;;
48795;SDS011;34607;48.520;-1.330;2024-02-26T10:40:09;6.53;;;1.15;;
48795;SDS011;34607;48.520;-1.330;2024-02-26T10:42:38;2.83;;;1.23;;
48795;SDS011;34607;48.520;-1.330;2024-02-26T10:45:04;4.35;;;0.95;;
48795;SDS011;34607;48.520;-1.330;2024-02-26T10:47:32;6.85;;;2.90;;
48795;SDS011;34607;48.520;-1.330;2024-02-26T10:50:00;4.28;;;1.15;;
48795;SDS011;34607;48.520;-1.330;2024-02-26T10:52:29;5.47;;;1.20;;
48795;SDS011;34607;48.520;-1.330;2024-02-26T10:55:00;5.63;;;1.45;;
48795;SDS011;34607;48.520;-1.330;2024-02-26T10:57:29;5.30;;;1.98;;
48795;SDS011;34607;48.520;-1.330;2024-02-26T11:00:02;4.55;;;1.23;;
48795;SDS011;34607;48.520;-1.330;2024-02-26T11:02:30;5.97;;;1.58;;
48795;SDS011;34607;48.520;-1.330;2024-02-26T11:04:58;3.15;;;1.30;;
48795;SDS011;34607;48.520;-1.330;2024-02-26T11:07:26;10.00;;;1.50;;
48795;SDS011;34607;48.520;-1.330;2024-02-26T11:09:56;3.47;;;1.90;;
48795;SDS011;34607;48.520;-1.330;2024-02-26T11:12:25;6.22;;;1.95;;
48795;SDS011;34607;48.520;-1.330;2024-02-26T11:14:55;7.63;;;1.85;;
48795;SDS011;34607;48.520;-1.330;2024-02-26T11:17:25;7.20;;;1.30;;
48795;SDS011;34607;48.520;-1.330;2024-02-26T11:19:55;5.28;;;1.75;;
48795;SDS011;34607;48.520;-1.330;2024-02-26T11:22:23;6.82;;;1.83;;
48795;SDS011;34607;48.520;-1.330;2024-02-26T11:24:51;8.95;;;1.67;;
48795;SDS011;34607;48.520;-1.330;2024-02-26T11:27:19;5.80;;;1.30;;
48795;SDS011;34607;48.520;-1.330;2024-02-26T11:29:51;5.78;;;1.60;;
48795;SDS011;34607;48.520;-1.330;2024-02-26T11:32:20;4.22;;;1.25;;
48795;SDS011;34607;48.520;-1.330;2024-02-26T11:34:49;3.72;;;1.10;;
48795;SDS011;34607;48.520;-1.330;2024-02-26T11:37:16;6.43;;;1.65;;
48795;SDS011;34607;48.520;-1.330;2024-02-26T11:39:45;4.32;;;1.85;;
48795;SDS011;34607;48.520;-1.330;2024-02-26T11:42:13;10.32;;;1.65;;
48795;SDS011;34607;48.520;-1.330;2024-02-26T11:44:41;9.50;;;1.55;;
48795;SDS011;34607;48.520;-1.330;2024-02-26T11:47:12;4.95;;;1.40;;
48795;SDS011;34607;48.520;-1.330;2024-02-26T11:49:40;5.97;;;1.83;;
48795;SDS011;34607;48.520;-1.330;2024-02-26T11:52:09;2.33;;;1.10;;
48795;SDS011;34607;48.520;-1.330;2024-02-26T11:54:43;7.80;;;1.60;;
48795;SDS011;34607;48.520;-1.330;2024-02-26T11:57:22;3.38;;;1.20;;
48795;SDS011;34607;48.520;-1.330;2024-02-26T11:59:50;4.43;;;1.75;;
48795;SDS011;34607;48.520;-1.330;2024-02-26T12:05:12;4.90;;;1.05;;
48795;SDS011;34607;48.520;-1.330;2024-02-26T12:07:43;4.65;;;1.10;;
48795;SDS011;34607;48.520;-1.330;2024-02-26T12:10:15;2.67;;;1.00;;
48795;SDS011;34607;48.520;-1.330;2024-02-26T12:12:55;3.67;;;1.23;;
48795;SDS011;34607;48.520;-1.330;2024-02-26T12:17:58;4.10;;;1.80;;
48795;SDS011;34607;48.520;-1.330;2024-02-26T12:20:26;6.95;;;3.08;;
48795;SDS011;34607;48.520;-1.330;2024-02-26T12:22:54;7.72;;;1.70;;
48795;SDS011;34607;48.520;-1.330;2024-02-26T12:25:23;3.70;;;1.48;;
48795;SDS011;34607;48.520;-1.330;2024-02-26T12:27:52;3.75;;;2.25;;
48795;SDS011;34607;48.520;-1.330;2024-02-26T12:30:20;3.90;;;1.30;;
48795;SDS011;34607;48.520;-1.330;2024-02-26T12:32:48;4.20;;;1.50;;
48795;SDS011;34607;48.520;-1.330;2024-02-26T12:35:16;2.17;;;1.17;;
48795;SDS011;34607;48.520;-1.330;2024-02-26T12:37:44;5.10;;;1.40;;
48795;SDS011;34607;48.520;-1.330;2024-02-26T12:40:12;3.05;;;1.33;;
48795;SDS011;34607;48.520;-1.330;2024-02-26T12:42:40;3.13;;;1.40;;
48795;SDS011;34607;48.520;-1.330;2024-02-26T12:45:08;3.58;;;1.80;;
48795;SDS011;34607;48.520;-1.330;2024-02-26T12:47:37;4.43;;;1.25;;
48795;SDS011;34607;48.520;-1.330;2024-02-26T12:50:05;4.88;;;1.50;;
48795;SDS011;34607;48.520;-1.330;2024-02-26T12:52:33;3.47;;;1.45;;
48795;SDS011;34607;48.520;-1.330;2024-02-26T12:55:01;7.85;;;2.40;;
48795;SDS011;34607;48.520;-1.330;2024-02-26T12:57:30;4.03;;;1.48;;
48795;SDS011;34607;48.520;-1.330;2024-02-26T12:59:59;7.20;;;2.20;;
48795;SDS011;34607;48.520;-1.330;2024-02-26T13:02:27;3.85;;;1.27;;
48795;SDS011;34607;48.520;-1.330;2024-02-26T13:04:54;4.75;;;1.55;;
48795;SDS011;34607;48.520;-1.330;2024-02-26T13:07:22;8.85;;;2.63;;
48795;SDS011;34607;48.520;-1.330;2024-02-26T13:09:49;6.68;;;1.58;;
48795;SDS011;34607;48.520;-1.330;2024-02-26T13:12:18;5.20;;;1.50;;
48795;SDS011;34607;48.520;-1.330;2024-02-26T13:14:46;6.40;;;1.90;;
48795;SDS011;34607;48.520;-1.330;2024-02-26T13:17:13;4.80;;;1.58;;
48795;SDS011;34607;48.520;-1.330;2024-02-26T13:19:48;4.97;;;1.13;;
48795;SDS011;34607;48.520;-1.330;2024-02-26T13:22:16;2.10;;;1.00;;
48795;SDS011;34607;48.520;-1.330;2024-02-26T13:24:53;3.90;;;1.75;;
48795;SDS011;34607;48.520;-1.330;2024-02-26T13:27:21;2.63;;;1.42;;
48795;SDS011;34607;48.520;-1.330;2024-02-26T13:29:50;3.50;;;1.52;;
48795;SDS011;34607;48.520;-1.330;2024-02-26T13:32:31;5.07;;;1.83;;
48795;SDS011;34607;48.520;-1.330;2024-02-26T13:35:05;5.55;;;1.80;;
48795;SDS011;34607;48.520;-1.330;2024-02-26T13:37:33;5.80;;;2.70;;
48795;SDS011;34607;48.520;-1.330;2024-02-26T13:40:04;5.88;;;2.47;;
48795;SDS011;34607;48.520;-1.330;2024-02-26T13:42:31;5.85;;;1.50;;
48795;SDS011;34607;48.520;-1.330;2024-02-26T13:45:00;8.02;;;1.83;;
48795;SDS011;34607;48.520;-1.330;2024-02-26T13:47:27;1.73;;;1.13;;
48795;SDS011;34607;48.520;-1.330;2024-02-26T13:49:54;3.17;;;1.30;;
48795;SDS011;34607;48.520;-1.330;2024-02-26T13:52:22;6.57;;;1.60;;
48795;SDS011;34607;48.520;-1.330;2024-02-26T13:54:49;3.67;;;1.23;;
48795;SDS011;34607;48.520;-1.330;2024-02-26T13:57:16;3.22;;;1.40;;
48795;SDS011;34607;48.520;-1.330;2024-02-26T13:59:43;2.85;;;1.48;;
48795;SDS011;34607;48.520;-1.330;2024-02-26T14:02:12;6.03;;;2.60;;
48795;SDS011;34607;48.520;-1.330;2024-02-26T14:04:39;4.72;;;1.75;;
48795;SDS011;34607;48.520;-1.330;2024-02-26T14:07:06;7.10;;;1.83;;
48795;SDS011;34607;48.520;-1.330;2024-02-26T14:09:34;6.38;;;2.15;;
48795;SDS011;34607;48.520;-1.330;2024-02-26T14:12:01;8.20;;;1.90;;
48795;SDS011;34607;48.520;-1.330;2024-02-26T14:14:28;8.60;;;2.03;;
48795;SDS011;34607;48.520;-1.330;2024-02-26T14:16:57;8.63;;;3.10;;
48795;SDS011;34607;48.520;-1.330;2024-02-26T14:19:26;10.70;;;2.55;;
48795;SDS011;34607;48.520;-1.330;2024-02-26T14:21:54;11.32;;;2.90;;
48795;SDS011;34607;48.520;-1.330;2024-02-26T14:24:21;9.73;;;2.78;;
48795;SDS011;34607;48.520;-1.330;2024-02-26T14:26:48;9.45;;;2.55;;
48795;SDS011;34607;48.520;-1.330;2024-02-26T14:29:15;8.52;;;2.10;;
48795;SDS011;34607;48.520;-1.330;2024-02-26T14:31:42;6.57;;;3.03;;
48795;SDS011;34607;48.520;-1.330;2024-02-26T14:34:09;16.70;;;3.95;;
48795;SDS011;34607;48.520;-1.330;2024-02-26T14:36:38;14.45;;;3.53;;
48795;SDS011;34607;48.520;-1.330;2024-02-26T14:39:05;8.20;;;3.03;;
48795;SDS011;34607;48.520;-1.330;2024-02-26T14:41:32;10.88;;;2.90;;
48795;SDS011;34607;48.520;-1.330;2024-02-26T14:43:59;8.52;;;2.72;;
48795;SDS011;34607;48.520;-1.330;2024-02-26T14:46:26;10.45;;;3.17;;
48795;SDS011;34607;48.520;-1.330;2024-02-26T14:48:54;9.10;;;3.60;;
48795;SDS011;34607;48.520;-1.330;2024-02-26T14:51:21;11.60;;;3.25;;
48795;SDS011;34607;48.520;-1.330;2024-02-26T14:53:50;9.30;;;3.22;;
48795;SDS011;34607;48.520;-1.330;2024-02-26T14:56:18;12.57;;;3.22;;
48795;SDS011;34607;48.520;-1.330;2024-02-26T14:58:45;12.82;;;2.85;;
48795;SDS011;34607;48.520;-1.330;2024-02-26T15:01:12;12.57;;;3.30;;
48795;SDS011;34607;48.520;-1.330;2024-02-26T15:03:39;10.68;;;3.55;;
48795;SDS011;34607;48.520;-1.330;2024-02-26T15:06:07;13.73;;;3.53;;
48795;SDS011;34607;48.520;-1.330;2024-02-26T15:08:34;10.40;;;3.53;;
48795;SDS011;34607;48.520;-1.330;2024-02-26T15:11:02;10.93;;;2.88;;
48795;SDS011;34607;48.520;-1.330;2024-02-26T15:13:30;18.52;;;4.00;;
48795;SDS011;34607;48.520;-1.330;2024-02-26T15:15:58;11.90;;;2.83;;
48795;SDS011;34607;48.520;-1.330;2024-02-26T15:18:25;11.05;;;3.42;;
48795;SDS011;34607;48.520;-1.330;2024-02-26T15:20:52;7.97;;;3.38;;
48795;SDS011;34607;48.520;-1.330;2024-02-26T15:23:19;9.38;;;3.63;;
48795;SDS011;34607;48.520;-1.330;2024-02-26T15:25:46;9.93;;;4.18;;
48795;SDS011;34607;48.520;-1.330;2024-02-26T15:28:15;12.20;;;4.40;;
48795;SDS011;34607;48.520;-1.330;2024-02-26T15:30:42;11.35;;;3.03;;
48795;SDS011;34607;48.520;-1.330;2024-02-26T15:33:09;11.35;;;4.68;;
48795;SDS011;34607;48.520;-1.330;2024-02-26T15:35:37;15.38;;;3.53;;
48795;SDS011;34607;48.520;-1.330;2024-02-26T15:38:04;13.23;;;3.60;;
48795;SDS011;34607;48.520;-1.330;2024-02-26T15:40:31;12.82;;;4.50;;
48795;SDS011;34607;48.520;-1.330;2024-02-26T15:42:58;9.68;;;3.45;;
48795;SDS011;34607;48.520;-1.330;2024-02-26T15:45:27;11.98;;;3.45;;
48795;SDS011;34607;48.520;-1.330;2024-02-26T15:47:57;19.73;;;4.35;;
48795;SDS011;34607;48.520;-1.330;2024-02-26T15:50:24;12.40;;;3.03;;
48795;SDS011;34607;48.520;-1.330;2024-02-26T15:52:51;13.57;;;3.10;;
48795;SDS011;34607;48.520;-1.330;2024-02-26T15:55:20;10.95;;;2.53;;
48795;SDS011;34607;48.520;-1.330;2024-02-26T15:57:47;10.68;;;3.42;;
48795;SDS011;34607;48.520;-1.330;2024-02-26T16:00:14;17.90;;;8.30;;
48795;SDS011;34607;48.520;-1.330;2024-02-26T16:02:43;12.10;;;4.50;;
48795;SDS011;34607;48.520;-1.330;2024-02-26T16:05:14;12.00;;;3.28;;
48795;SDS011;34607;48.520;-1.330;2024-02-26T16:07:43;11.52;;;3.55;;
48795;SDS011;34607;48.520;-1.330;2024-02-26T16:10:15;11.90;;;4.43;;
48795;SDS011;34607;48.520;-1.330;2024-02-26T16:12:44;9.98;;;3.05;;
48795;SDS011;34607;48.520;-1.330;2024-02-26T16:15:15;10.75;;;3.53;;
48795;SDS011;34607;48.520;-1.330;2024-02-26T16:17:43;12.15;;;3.95;;
48795;SDS011;34607;48.520;-1.330;2024-02-26T16:20:13;7.45;;;2.60;;
48795;SDS011;34607;48.520;-1.330;2024-02-26T16:22:41;12.23;;;2.88;;
48795;SDS011;34607;48.520;-1.330;2024-02-26T16:25:08;8.00;;;2.83;;
48795;SDS011;34607;48.520;-1.330;2024-02-26T16:27:35;13.48;;;2.80;;
48795;SDS011;34607;48.520;-1.330;2024-02-26T16:30:03;10.25;;;3.45;;
48795;SDS011;34607;48.520;-1.330;2024-02-26T16:32:31;10.40;;;2.60;;
48795;SDS011;34607;48.520;-1.330;2024-02-26T16:35:00;9.90;;;3.42;;
48795;SDS011;34607;48.520;-1.330;2024-02-26T16:37:27;8.88;;;2.63;;
48795;SDS011;34607;48.520;-1.330;2024-02-26T16:39:57;16.58;;;3.30;;
48795;SDS011;34607;48.520;-1.330;2024-02-26T16:42:25;11.98;;;2.85;;
48795;SDS011;34607;48.520;-1.330;2024-02-26T16:44:52;10.68;;;2.65;;
48795;SDS011;34607;48.520;-1.330;2024-02-26T16:47:21;12.25;;;3.63;;
48795;SDS011;34607;48.520;-1.330;2024-02-26T16:49:48;13.00;;;2.75;;
48795;SDS011;34607;48.520;-1.330;2024-02-26T16:52:17;13.90;;;3.63;;
48795;SDS011;34607;48.520;-1.330;2024-02-26T16:54:44;10.82;;;2.88;;
48795;SDS011;34607;48.520;-1.330;2024-02-26T16:57:11;13.80;;;4.30;;
48795;SDS011;34607;48.520;-1.330;2024-02-26T16:59:38;13.18;;;3.33;;
48795;SDS011;34607;48.520;-1.330;2024-02-26T17:02:05;10.63;;;2.78;;
48795;SDS011;34607;48.520;-1.330;2024-02-26T17:04:33;14.45;;;3.90;;
48795;SDS011;34607;48.520;-1.330;2024-02-26T17:07:00;7.70;;;2.60;;
48795;SDS011;34607;48.520;-1.330;2024-02-26T17:09:30;10.05;;;2.75;;
48795;SDS011;34607;48.520;-1.330;2024-02-26T17:11:57;23.33;;;7.65;;
48795;SDS011;34607;48.520;-1.330;2024-02-26T17:14:24;7.85;;;2.38;;
48795;SDS011;34607;48.520;-1.330;2024-02-26T17:16:52;8.98;;;2.65;;
48795;SDS011;34607;48.520;-1.330;2024-02-26T17:19:19;11.57;;;2.53;;
48795;SDS011;34607;48.520;-1.330;2024-02-26T17:21:47;10.55;;;3.65;;
48795;SDS011;34607;48.520;-1.330;2024-02-26T17:24:14;11.40;;;2.85;;
48795;SDS011;34607;48.520;-1.330;2024-02-26T17:26:42;13.85;;;3.25;;
48795;SDS011;34607;48.520;-1.330;2024-02-26T17:29:09;12.43;;;3.42;;
48795;SDS011;34607;48.520;-1.330;2024-02-26T17:31:37;11.65;;;3.55;;
48795;SDS011;34607;48.520;-1.330;2024-02-26T17:34:08;11.82;;;3.65;;
48795;SDS011;34607;48.520;-1.330;2024-02-26T17:36:35;21.10;;;3.03;;
48795;SDS011;34607;48.520;-1.330;2024-02-26T17:39:02;9.98;;;2.90;;
48795;SDS011;34607;48.520;-1.330;2024-02-26T17:41:30;14.73;;;3.90;;
48795;SDS011;34607;48.520;-1.330;2024-02-26T17:43:59;9.48;;;3.20;;
48795;SDS011;34607;48.520;-1.330;2024-02-26T17:46:27;12.00;;;2.55;;
48795;SDS011;34607;48.520;-1.330;2024-02-26T17:48:54;10.95;;;2.78;;
48795;SDS011;34607;48.520;-1.330;2024-02-26T17:51:21;10.07;;;3.05;;
48795;SDS011;34607;48.520;-1.330;2024-02-26T17:53:48;15.30;;;2.60;;
48795;SDS011;34607;48.520;-1.330;2024-02-26T17:56:15;10.13;;;2.70;;
48795;SDS011;34607;48.520;-1.330;2024-02-26T17:58:42;15.52;;;2.50;;
48795;SDS011;34607;48.520;-1.330;2024-02-26T18:01:11;13.90;;;3.08;;
48795;SDS011;34607;48.520;-1.330;2024-02-26T18:03:38;9.65;;;2.47;;
48795;SDS011;34607;48.520;-1.330;2024-02-26T18:06:05;10.15;;;2.78;;
48795;SDS011;34607;48.520;-1.330;2024-02-26T18:08:32;21.02;;;4.80;;
48795;SDS011;34607;48.520;-1.330;2024-02-26T18:10:59;14.10;;;2.92;;
48795;SDS011;34607;48.520;-1.330;2024-02-26T18:13:27;7.72;;;2.58;;
48795;SDS011;34607;48.520;-1.330;2024-02-26T18:15:54;12.55;;;3.15;;
48795;SDS011;34607;48.520;-1.330;2024-02-26T18:18:23;11.63;;;3.20;;
48795;SDS011;34607;48.520;-1.330;2024-02-26T18:20:51;13.10;;;2.28;;
48795;SDS011;34607;48.520;-1.330;2024-02-26T18:23:18;14.70;;;3.70;;
48795;SDS011;34607;48.520;-1.330;2024-02-26T18:25:45;13.48;;;2.30;;
48795;SDS011;34607;48.520;-1.330;2024-02-26T18:28:12;11.52;;;3.17;;
48795;SDS011;34607;48.520;-1.330;2024-02-26T18:30:39;10.93;;;4.25;;
48795;SDS011;34607;48.520;-1.330;2024-02-26T18:33:10;11.90;;;3.50;;
48795;SDS011;34607;48.520;-1.330;2024-02-26T18:35:38;7.97;;;3.30;;
48795;SDS011;34607;48.520;-1.330;2024-02-26T18:38:06;9.20;;;2.50;;
48795;SDS011;34607;48.520;-1.330;2024-02-26T18:40:33;15.52;;;4.38;;
48795;SDS011;34607;48.520;-1.330;2024-02-26T18:43:01;9.77;;;3.83;;
48795;SDS011;34607;48.520;-1.330;2024-02-26T18:45:28;9.02;;;2.90;;
48795;SDS011;34607;48.520;-1.330;2024-02-26T18:47:56;8.23;;;3.10;;
48795;SDS011;34607;48.520;-1.330;2024-02-26T18:50:23;11.07;;;2.88;;
48795;SDS011;34607;48.520;-1.330;2024-02-26T18:52:51;10.52;;;3.28;;
48795;SDS011;34607;48.520;-1.330;2024-02-26T18:55:18;10.07;;;3.38;;
48795;SDS011;34607;48.520;-1.330;2024-02-26T18:57:45;11.98;;;3.25;;
48795;SDS011;34607;48.520;-1.330;2024-02-26T19:00:13;10.85;;;3.03;;
48795;SDS011;34607;48.520;-1.330;2024-02-26T19:02:40;11.68;;;3.00;;
48795;SDS011;34607;48.520;-1.330;2024-02-26T19:05:07;11.20;;;4.32;;
48795;SDS011;34607;48.520;-1.330;2024-02-26T19:07:34;12.68;;;2.70;;
48795;SDS011;34607;48.520;-1.330;2024-02-26T19:10:03;8.60;;;2.13;;
48795;SDS011;34607;48.520;-1.330;2024-02-26T19:12:31;4.97;;;2.15;;
48795;SDS011;34607;48.520;-1.330;2024-02-26T19:14:58;6.97;;;2.03;;
48795;SDS011;34607;48.520;-1.330;2024-02-26T19:17:25;11.32;;;2.70;;
48795;SDS011;34607;48.520;-1.330;2024-02-26T19:19:52;7.32;;;2.80;;
48795;SDS011;34607;48.520;-1.330;2024-02-26T19:22:19;7.93;;;2.78;;
48795;SDS011;34607;48.520;-1.330;2024-02-26T19:24:46;11.88;;;2.60;;
48795;SDS011;34607;48.520;-1.330;2024-02-26T19:27:14;9.02;;;3.22;;
48795;SDS011;34607;48.520;-1.330;2024-02-26T19:29:42;7.70;;;2.80;;
48795;SDS011;34607;48.520;-1.330;2024-02-26T19:32:09;7.30;;;2.33;;
48795;SDS011;34607;48.520;-1.330;2024-02-26T19:34:37;10.82;;;2.97;;
48795;SDS011;34607;48.520;-1.330;2024-02-26T19:37:04;8.85;;;2.80;;
48795;SDS011;34607;48.520;-1.330;2024-02-26T19:39:31;13.25;;;2.47;;
48795;SDS011;34607;48.520;-1.330;2024-02-26T19:41:58;12.13;;;2.53;;
48795;SDS011;34607;48.520;-1.330;2024-02-26T19:44:27;9.95;;;3.55;;
48795;SDS011;34607;48.520;-1.330;2024-02-26T19:46:55;10.52;;;2.30;;
48795;SDS011;34607;48.520;-1.330;2024-02-26T19:49:22;9.70;;;2.60;;
48795;SDS011;34607;48.520;-1.330;2024-02-26T19:51:48;7.68;;;3.33;;
48795;SDS011;34607;48.520;-1.330;2024-02-26T19:54:16;10.00;;;2.42;;
48795;SDS011;34607;48.520;-1.330;2024-02-26T19:56:43;7.35;;;2.05;;
48795;SDS011;34607;48.520;-1.330;2024-02-26T19:59:11;12.15;;;2.92;;
48795;SDS011;34607;48.520;-1.330;2024-02-26T20:01:40;12.27;;;3.40;;
48795;SDS011;34607;48.520;-1.330;2024-02-26T20:04:08;8.98;;;2.35;;
48795;SDS011;34607;48.520;-1.330;2024-02-26T20:06:38;12.40;;;3.10;;
48795;SDS011;34607;48.520;-1.330;2024-02-26T20:09:06;14.90;;;3.63;;
48795;SDS011;34607;48.520;-1.330;2024-02-26T20:11:33;13.40;;;2.67;;
48795;SDS011;34607;48.520;-1.330;2024-02-26T20:14:00;12.23;;;2.50;;
48795;SDS011;34607;48.520;-1.330;2024-02-26T20:16:28;6.85;;;2.55;;
48795;SDS011;34607;48.520;-1.330;2024-02-26T20:18:56;6.63;;;2.40;;
48795;SDS011;34607;48.520;-1.330;2024-02-26T20:21:24;7.60;;;2.30;;
48795;SDS011;34607;48.520;-1.330;2024-02-26T20:23:51;7.65;;;1.75;;
48795;SDS011;34607;48.520;-1.330;2024-02-26T20:26:18;8.77;;;2.85;;
48795;SDS011;34607;48.520;-1.330;2024-02-26T20:28:45;12.93;;;2.47;;
48795;SDS011;34607;48.520;-1.330;2024-02-26T20:31:12;13.57;;;3.17;;
48795;SDS011;34607;48.520;-1.330;2024-02-26T20:33:39;8.02;;;2.78;;
48795;SDS011;34607;48.520;-1.330;2024-02-26T20:36:09;9.52;;;2.20;;
48795;SDS011;34607;48.520;-1.330;2024-02-26T20:38:36;7.05;;;2.72;;
48795;SDS011;34607;48.520;-1.330;2024-02-26T20:41:03;8.77;;;2.30;;
48795;SDS011;34607;48.520;-1.330;2024-02-26T20:43:30;9.50;;;2.28;;
48795;SDS011;34607;48.520;-1.330;2024-02-26T20:45:59;11.00;;;2.45;;
48795;SDS011;34607;48.520;-1.330;2024-02-26T20:48:26;7.35;;;1.88;;
48795;SDS011;34607;48.520;-1.330;2024-02-26T20:50:53;10.98;;;2.72;;
48795;SDS011;34607;48.520;-1.330;2024-02-26T20:53:22;8.30;;;3.08;;
48795;SDS011;34607;48.520;-1.330;2024-02-26T20:55:49;12.85;;;2.75;;
48795;SDS011;34607;48.520;-1.330;2024-02-26T20:58:16;10.15;;;2.22;;
48795;SDS011;34607;48.520;-1.330;2024-02-26T21:00:43;7.07;;;2.00;;
48795;SDS011;34607;48.520;-1.330;2024-02-26T21:03:11;12.82;;;2.92;;
48795;SDS011;34607;48.520;-1.330;2024-02-26T21:05:39;10.77;;;3.63;;
48795;SDS011;34607;48.520;-1.330;2024-02-26T21:08:07;9.55;;;3.42;;
48795;SDS011;34607;48.520;-1.330;2024-02-26T21:10:35;9.18;;;2.50;;
48795;SDS011;34607;48.520;-1.330;2024-02-26T21:13:03;12.43;;;3.40;;
48795;SDS011;34607;48.520;-1.330;2024-02-26T21:15:30;8.00;;;2.05;;
48795;SDS011;34607;48.520;-1.330;2024-02-26T21:17:57;9.88;;;2.85;;
48795;SDS011;34607;48.520;-1.330;2024-02-26T21:20:24;10.23;;;3.40;;
48795;SDS011;34607;48.520;-1.330;2024-02-26T21:22:56;9.88;;;3.10;;
48795;SDS011;34607;48.520;-1.330;2024-02-26T21:25:23;13.65;;;2.10;;
48795;SDS011;34607;48.520;-1.330;2024-02-26T21:27:52;10.38;;;2.60;;
48795;SDS011;34607;48.520;-1.330;2024-02-26T21:30:20;12.75;;;2.97;;
48795;SDS011;34607;48.520;-1.330;2024-02-26T21:32:48;13.45;;;3.72;;
48795;SDS011;34607;48.520;-1.330;2024-02-26T21:35:15;8.23;;;2.85;;
48795;SDS011;34607;48.520;-1.330;2024-02-26T21:37:42;12.38;;;2.63;;
48795;SDS011;34607;48.520;-1.330;2024-02-26T21:40:10;12.00;;;3.00;;
48795;SDS011;34607;48.520;-1.330;2024-02-26T21:42:38;17.85;;;4.45;;
48795;SDS011;34607;48.520;-1.330;2024-02-26T21:45:08;10.00;;;3.28;;
48795;SDS011;34607;48.520;-1.330;2024-02-26T21:47:37;10.57;;;3.30;;
48795;SDS011;34607;48.520;-1.330;2024-02-26T21:50:04;6.45;;;2.30;;
48795;SDS011;34607;48.520;-1.330;2024-02-26T21:52:32;11.93;;;3.08;;
48795;SDS011;34607;48.520;-1.330;2024-02-26T21:54:59;10.02;;;2.60;;
48795;SDS011;34607;48.520;-1.330;2024-02-26T21:57:27;12.65;;;3.38;;
48795;SDS011;34607;48.520;-1.330;2024-02-26T21:59:54;12.48;;;3.25;;
48795;SDS011;34607;48.520;-1.330;2024-02-26T22:02:22;8.15;;;2.42;;
48795;SDS011;34607;48.520;-1.330;2024-02-26T22:04:49;12.18;;;3.17;;
48795;SDS011;34607;48.520;-1.330;2024-02-26T22:07:16;9.32;;;2.28;;
48795;SDS011;34607;48.520;-1.330;2024-02-26T22:09:44;9.18;;;2.58;;
48795;SDS011;34607;48.520;-1.330;2024-02-26T22:12:11;8.02;;;2.40;;
48795;SDS011;34607;48.520;-1.330;2024-02-26T22:14:38;16.13;;;3.47;;
48795;SDS011;34607;48.520;-1.330;2024-02-26T22:17:06;11.88;;;2.45;;
48795;SDS011;34607;48.520;-1.330;2024-02-26T22:19:35;10.13;;;2.90;;
48795;SDS011;34607;48.520;-1.330;2024-02-26T22:22:02;6.80;;;2.53;;
48795;SDS011;34607;48.520;-1.330;2024-02-26T22:24:29;11.18;;;3.53;;
